aviador You're here:

LFOC Decoded Metar

CHATEAUDUN in FRANCE
Report Time2017-10-22 06:00:00
UTC Time2017-10-22 06:34:35
Flight Rules vfr VFR
Wind250° at 14 kt
W.Decomp.*RWY 28: 12.2 kt HW 6.8 kt LCW
W.Rank250° ranks 6
Current wind is above 250° avg. (8.7)
Visibility9999 m
Phenomena:N/A
Clouds:Few 021 Hf
Scattered 180 Hf
Expected CloudBase > 800 ft AGL from Temp-Dew spread
CeilingNone
Temp08°C (ISA -6)
Dew Point06°C (87% RH)
AAT2.0°C
QNH1019 hPa
Density Alt-400 ft
Elevation417 ft
Report Wrong Elevation
Raw Report
METAR LFOC 220600Z AUTO 25014KT 9999 FEW021 SCT180 08/06 Q1019=

Extra information for LFOC:More info

Metar Taf Metar & Taf Last 4 Metars F.Rules Stats Wind Profile Meteogram Temp Stats Airport Information Weather charts Add Link Nearby VenuesMetar ALERT Operation Metar Decoded Social comments